Date,TemperatureHighF,TemperatureAvgF,TemperatureLowF,DewpointHighF,DewpointAvgF,DewpointLowF,HumidityHigh,HumidityAvg,HumidityLow,PressureMaxIn,PressureMinIn,WindSpeedMaxMPH,WindSpeedAvgMPH,GustSpeedMaxMPH,PrecipitationSumIn
2014-1-1,48,34,25,31,27,23,92,78,50,30.39,30.14,0,0,0,0.00
2014-1-2,45,36,19,43,33,14,94,88,75,30.14,29.77,12,3,0,0.24
2014-1-3,30,22,14,14,11,8,84,64,47,30.43,30.13,17,4,17,0.00
2014-1-4,40,30,16,37,22,11,92,73,45,30.45,30.21,5,0,0,0.00
2014-1-5,54,45,39,48,42,37,95,89,71,30.20,29.70,8,0,0,0.40
2014-1-6,46,17,5,44,10,-3,91,77,58,30.44,29.74,14,5,7,0.00
2014-1-7,20,9,0,6,-1,-7,82,66,49,30.63,30.45,8,2,0,0.00
2014-1-8,45,23,7,24,13,3,86,68,38,30.67,30.50,3,0,3,0.00
2014-1-9,50,35,24,41,28,18,92,76,52,30.54,30.37,4,0,0,0.01
2014-1-10,53,47,42,52,45,40,96,94,89,30.36,29.96,2,0,0,0.66
2014-1-11,60,54,43,59,46,31,96,76,41,29.95,29.64,19,1,11,1.78
2014-1-12,56,42,30,38,32,28,92,71,38,30.16,29.90,5,0,0,0.00
2014-1-13,52,41,32,42,36,29,94,83,52,30.16,29.89,3,0,0,0.22
2014-1-14,53,44,32,44,37,29,95,80,53,30.00,29.80,9,1,0,0.19
2014-1-15,42,35,26,34,26,15,91,70,36,30.06,29.93,8,2,0,0.00
2014-1-16,42,29,16,18,16,13,87,61,31,30.12,29.97,7,1,0,0.01
2014-1-17,45,35,26,30,21,11,70,57,43,30.08,29.89,14,2,0,0.00
2014-1-18,38,29,19,15,12,10,75,52,37,30.20,29.98,8,1,0,0.00
2014-1-19,45,37,27,28,23,15,83,57,42,30.09,29.95,9,1,0,0.00
2014-1-20,59,45,22,34,28,20,88,55,34,30.06,29.88,12,0,12,0.00
2014-1-21,46,34,17,30,24,10,78,66,51,30.02,29.71,13,4,0,0.00
2014-1-22,30,19,8,9,2,-6,73,52,22,30.22,30.02,11,3,0,0.00
2014-1-23,26,21,11,12,6,-2,69,54,43,30.58,30.21,14,5,0,0.00
2014-1-24,28,16,3,1,-2,-4,77,50,25,30.69,30.32,8,1,0,0.00
2014-1-25,33,26,15,21,9,-3,63,48,40,30.30,29.91,12,1,0,0.00
2014-1-26,51,37,19,31,24,15,86,63,45,30.02,29.89,7,1,0,0.00
2014-1-27,50,40,22,34,24,2,67,53,36,30.15,29.86,12,4,0,0.00
2014-1-28,22,18,14,15,8,2,85,68,42,30.30,30.14,12,4,0,0.00
2014-1-29,27,15,6,11,1,-3,85,57,30,30.42,30.29,7,2,0,0.02
2014-1-30,42,19,-1,14,6,-6,82,59,30,30.43,30.22,6,0,0,0.04
2014-1-31,53,31,15,21,15,10,85,57,23,30.30,30.18,4,0,0,0.01
2014-2-1,60,39,23,43,28,16,83,66,34,30.22,30.09,3,0,0,0.00
2014-2-2,58,47,31,55,44,28,95,89,82,30.14,29.87,6,0,0,0.92
2014-2-3,60,43,37,58,40,35,96,91,87,30.18,29.78,9,2,9,1.23
2014-2-4,53,43,36,50,41,34,96,91,82,30.23,29.91,11,1,0,0.01
2014-2-5,51,41,26,49,37,21,95,87,77,30.25,29.81,12,3,10,0.30
2014-2-6,33,28,24,25,22,19,90,79,68,30.38,30.24,12,3,9,0.00
2014-2-7,43,32,25,30,26,22,91,77,55,30.40,30.27,6,1,0,0.00
2014-2-8,48,37,29,36,30,26,90,77,58,30.28,30.14,3,0,0,0.00
2014-2-9,52,38,29,40,33,27,93,83,63,30.20,30.05,6,0,0,0.00
2014-2-10,37,35,32,35,32,28,93,88,82,30.19,30.08,5,2,0,0.02
2014-2-11,35,32,30,32,30,27,93,89,85,30.29,30.17,2,0,0,0.10
2014-2-12,34,32,29,32,30,27,93,91,88,30.25,29.79,6,0,0,0.08
2014-2-13,37,32,28,33,29,26,93,89,76,29.89,29.73,10,1,0,0.14
2014-2-14,50,38,25,37,31,23,92,79,55,29.93,29.70,4,0,0,0.62
2014-2-15,38,31,26,36,24,20,93,76,55,30.14,29.66,13,4,12,0.06
2014-2-16,55,40,28,33,28,23,85,65,40,30.18,30.09,7,1,0,0.01
2014-2-17,61,42,28,44,33,25,93,75,42,30.24,30.06,7,1,0,0.17
2014-2-18,65,48,31,52,38,29,94,73,28,30.23,30.01,4,0,0,0.18
2014-2-19,67,60,54,59,56,53,94,86,73,30.02,29.94,11,1,11,0.07
2014-2-20,69,60,53,59,56,51,95,86,70,30.03,29.79,13,1,13,0.19
2014-2-21,64,48,32,59,35,22,93,62,32,30.10,29.72,15,3,15,0.72
2014-2-22,66,45,30,34,26,22,91,56,21,30.22,30.05,4,0,0,0.00
2014-2-23,69,51,36,37,32,25,78,53,26,30.08,29.92,6,1,0,0.00
2014-2-24,53,44,32,36,30,22,85,61,33,30.14,29.98,13,3,6,0.00
2014-2-25,56,42,30,34,28,21,81,60,41,30.11,29.95,10,2,0,0.00
2014-2-26,39,33,26,23,19,11,66,56,50,29.98,29.85,10,4,0,0.00
2014-2-27,41,30,19,14,9,4,65,44,26,30.05,29.94,11,3,0,0.00
2014-2-28,53,37,17,21,16,11,79,46,25,30.19,30.05,11,1,0,0.00
2014-3-1,53,46,39,39,34,21,72,62,39,30.27,30.18,7,0,0,0.00
2014-3-2,68,56,45,52,45,38,79,68,56,30.21,29.86,8,1,0,0.00
2014-3-3,59,41,26,53,37,24,94,87,64,30.16,29.73,12,3,0,0.51
2014-3-4,44,35,26,37,31,24,93,87,75,30.23,30.13,3,0,0,0.00
2014-3-5,59,42,30,41,34,28,94,77,43,30.20,30.05,4,0,0,0.00
2014-3-6,51,41,31,33,25,16,92,59,26,30.16,29.98,9,1,0,0.00
2014-3-7,62,48,40,40,36,26,84,64,43,30.03,29.90,6,1,0,0.00
2014-3-8,68,49,31,42,36,29,93,65,33,30.14,30.01,5,0,0,0.00
2014-3-9,62,50,41,42,38,33,84,64,40,30.17,30.07,10,2,0,0.00
2014-3-10,70,51,33,45,39,30,91,66,37,30.12,29.90,10,1,0,0.00
2014-3-11,75,56,36,51,44,34,91,68,39,29.92,29.69,8,1,0,0.00
2014-3-12,66,52,34,58,46,21,94,80,59,29.92,29.45,20,4,0,0.08
2014-3-13,45,35,28,23,19,15,69,54,32,30.27,29.93,18,6,0,0.00
2014-3-14,61,42,23,35,24,18,84,54,28,30.33,30.10,9,1,0,0.00
2014-3-15,66,54,39,43,37,32,76,55,39,30.11,29.98,7,1,0,0.00
2014-3-16,52,49,45,51,46,39,95,89,72,29.99,29.61,6,0,0,0.99
2014-3-17,51,49,42,50,47,40,95,93,87,29.80,29.59,3,0,0,0.68
2014-3-18,56,46,41,47,42,39,95,86,70,30.03,29.78,8,1,0,0.01
2014-3-19,52,47,43,46,43,40,91,84,74,30.09,30.01,10,1,0,0.00
2014-3-20,58,49,36,46,33,20,91,60,24,30.13,30.04,15,3,0,0.00
2014-3-21,67,46,27,34,29,25,91,58,25,30.18,30.03,10,1,0,0.00
2014-3-22,69,54,37,46,39,31,82,60,41,30.06,29.96,8,1,0,0.00
2014-3-23,51,46,40,44,38,28,92,74,49,30.18,29.93,11,4,0,0.06
2014-3-24,58,43,28,30,26,21,78,53,28,30.23,30.00,6,1,0,0.00
2014-3-25,42,36,30,36,25,11,92,65,46,30.18,29.89,13,4,0,0.05
2014-3-26,45,32,24,18,13,10,63,46,25,30.36,30.18,11,2,0,0.00
2014-3-27,63,44,25,40,23,14,78,48,23,30.36,30.15,15,3,0,0.00
2014-3-28,59,55,50,54,51,41,93,85,56,30.17,29.99,11,1,0,0.11
2014-3-29,60,52,38,58,50,35,95,91,83,30.01,29.70,16,3,0,0.31
2014-3-30,55,44,35,35,32,28,92,66,41,30.15,29.99,18,6,0,0.00
2014-3-31,77,52,28,40,30,25,90,52,20,30.21,30.06,6,1,0,0.00
2014-4-1,81,59,42,49,37,28,77,48,20,30.14,30.01,6,0,0,0.00
2014-4-2,80,60,40,48,39,33,81,50,19,30.12,30.01,8,1,0,0.00
2014-4-3,76,67,59,60,56,46,82,69,53,30.04,29.86,7,1,0,0.00
2014-4-4,66,61,54,59,56,52,94,84,68,29.91,29.75,10,1,0,0.10
2014-4-5,59,50,41,52,38,35,94,65,44,30.05,29.91,9,3,0,0.00
2014-4-6,62,50,39,46,39,34,92,69,43,30.08,29.93,14,2,0,0.11
2014-4-7,63,54,47,58,51,44,95,90,78,29.93,29.59,12,1,0,2.95
2014-4-8,58,50,44,45,40,37,83,70,50,29.81,29.69,12,4,0,0.01
2014-4-9,61,51,42,43,39,34,84,66,38,30.14,29.82,11,3,0,0.00
2014-4-10,73,53,32,44,37,29,92,61,31,30.27,30.12,9,1,0,0.00
2014-4-11,72,59,47,48,43,37,77,57,34,30.20,30.06,7,1,0,0.00
2014-4-12,82,63,45,55,50,43,91,64,38,30.19,30.02,6,1,0,0.00
2014-4-13,78,67,52,58,54,48,88,64,47,30.10,29.90,13,2,0,0.00
2014-4-14,69,63,59,59,56,53,93,79,60,29.91,29.73,9,1,0,0.56
2014-4-15,61,45,34,59,41,25,95,85,67,30.11,29.61,16,5,0,0.49
2014-4-16,62,45,29,33,26,23,77,52,26,30.32,30.12,9,3,0,0.00
2014-4-17,67,52,34,43,34,28,82,53,35,30.41,30.27,9,2,0,0.00
2014-4-18,58,52,46,48,40,30,92,65,42,30.32,30.13,4,0,0,0.02
2014-4-19,64,55,48,50,47,45,94,76,55,30.16,30.07,10,1,0,0.04
2014-4-20,76,59,41,49,45,39,93,64,35,30.24,30.08,5,1,0,0.00
2014-4-21,79,60,40,51,44,37,89,60,35,30.15,29.93,7,1,0,0.00
2014-4-22,67,58,49,60,53,45,93,83,70,29.93,29.78,7,0,0,0.01
2014-4-23,71,59,47,55,40,34,93,53,29,29.96,29.83,11,3,0,0.00
2014-4-24,77,59,36,49,41,33,90,56,28,30.04,29.86,7,1,0,0.00
2014-4-25,75,65,56,59,53,48,89,67,50,29.93,29.76,12,2,0,0.03
2014-4-26,83,62,42,52,46,40,93,61,28,30.02,29.90,6,0,0,0.00
2014-4-27,84,64,46,62,54,43,94,73,45,29.99,29.83,7,1,0,0.10
2014-4-28,76,68,58,66,62,57,96,82,68,29.90,29.68,6,1,0,0.01
2014-4-29,78,68,61,66,62,59,95,81,61,29.81,29.63,7,1,0,0.95
2014-4-30,68,63,57,61,59,55,94,87,72,29.89,29.74,7,1,0,0.10
2014-5-1,65,55,46,55,46,41,94,74,45,29.98,29.88,10,1,0,0.00
2014-5-2,67,54,41,46,42,39,93,68,39,29.98,29.88,7,1,0,0.00
2014-5-3,73,58,39,48,44,36,91,62,39,30.02,29.93,7,1,0,0.00
2014-5-4,84,64,44,55,49,42,92,62,31,30.08,29.95,5,0,0,0.00
2014-5-5,87,68,51,62,54,48,90,64,34,30.01,29.86,8,0,0,0.00
2014-5-6,86,68,50,60,55,48,92,65,35,29.95,29.86,5,0,0,0.00
2014-5-7,85,67,49,61,54,46,93,67,37,30.07,29.95,4,0,0,0.00
2014-5-8,84,68,50,64,56,47,92,70,46,30.17,30.06,5,0,0,0.00
2014-5-9,74,65,59,66,61,56,95,87,72,30.09,30.00,6,0,0,0.52
2014-5-10,67,62,58,64,60,56,96,93,82,30.10,29.99,2,0,0,0.39
2014-5-11,83,67,56,68,61,54,96,83,55,30.15,30.03,3,0,0,0.00
2014-5-12,85,71,58,69,63,56,95,79,51,30.14,30.04,5,0,0,0.00
2014-5-13,85,71,59,69,64,57,94,79,53,30.11,30.01,4,0,0,0.00
2014-5-14,78,67,56,67,61,54,94,82,61,30.07,29.87,7,1,0,1.30
2014-5-15,62,56,48,61,54,45,96,91,80,30.04,29.83,10,1,0,0.12
2014-5-16,61,51,39,49,43,35,94,76,44,30.12,30.00,5,0,0,0.00
2014-5-17,57,48,37,50,44,35,93,88,68,30.23,30.12,1,0,0,0.08
2014-5-18,58,53,50,56,51,48,95,94,91,30.23,30.17,2,0,0,0.32
2014-5-19,73,58,51,58,53,49,95,84,54,30.27,30.16,6,0,0,0.00
2014-5-20,79,62,47,65,55,46,94,79,55,30.26,30.09,4,0,0,0.00
2014-5-21,83,68,53,67,60,51,94,76,54,30.15,30.01,3,0,0,0.00
2014-5-22,83,70,56,68,62,55,94,79,55,30.09,29.98,6,0,0,0.00
2014-5-23,85,71,60,70,64,59,95,81,55,30.04,29.96,6,0,0,0.00
2014-5-24,80,68,58,67,62,56,94,80,61,30.07,29.99,5,1,0,0.00
2014-5-25,81,65,56,68,60,54,95,86,61,30.13,30.04,3,0,0,2.23
2014-5-26,80,66,55,71,63,54,96,91,65,30.19,30.07,4,0,0,0.15
2014-5-27,83,69,59,71,64,58,96,87,61,30.12,29.98,2,0,0,0.00
2014-5-28,85,71,59,68,64,58,96,80,51,30.04,29.93,3,0,0,0.00
2014-5-29,82,69,59,70,64,57,95,86,63,30.02,29.94,4,0,0,0.00
2014-5-30,82,69,63,72,65,62,96,89,61,30.05,29.98,3,0,0,0.02
2014-5-31,84,70,64,69,66,63,96,88,58,30.08,30.00,2,0,0,0.01
2014-6-1,75,68,63,66,63,59,95,82,63,30.18,30.08,5,1,0,0.01
2014-6-2,80,66,56,64,58,54,94,77,56,30.20,30.07,5,0,0,0.00
2014-6-3,78,67,56,68,62,54,94,84,69,30.12,29.97,2,0,0,0.00
2014-6-4,84,71,61,72,66,59,95,85,62,29.98,29.80,4,0,0,0.00
2014-6-5,79,72,66,71,66,61,95,82,64,29.87,29.67,10,1,0,0.54
2014-6-6,80,71,63,71,66,61,96,87,69,29.91,29.83,6,0,0,0.00
2014-6-7,84,72,63,71,67,62,96,85,64,29.95,29.85,2,0,0,0.00
2014-6-8,81,71,63,71,66,61,96,85,66,29.90,29.81,3,0,0,0.55
2014-6-9,78,68,58,70,64,56,95,87,71,29.91,29.84,1,0,0,0.02
2014-6-10,83,68,62,73,65,61,96,91,67,29.96,29.84,3,0,0,0.80
2014-6-11,74,67,61,70,65,59,97,94,81,29.88,29.77,3,0,0,0.85
2014-6-12,75,68,63,70,65,62,96,91,75,29.88,29.79,2,0,0,0.23
2014-6-13,75,67,59,69,64,58,96,91,80,29.92,29.83,1,0,0,0.00
2014-6-14,81,69,61,70,64,59,96,85,62,30.00,29.92,4,0,0,0.00
2014-6-15,84,71,62,73,67,61,96,88,67,30.10,29.99,4,0,0,0.08
2014-6-16,86,74,67,74,69,66,97,86,64,30.16,30.05,3,0,0,0.01
2014-6-17,84,74,63,73,68,62,96,84,65,30.17,30.04,3,0,0,0.00
2014-6-18,83,70,64,76,67,62,95,89,65,30.11,30.07,3,0,0,0.04
2014-6-19,87,74,63,77,69,62,96,85,64,30.13,30.03,1,0,0,0.02
2014-6-20,88,73,64,73,67,63,96,82,56,30.07,29.93,3,0,0,0.00
2014-6-21,85,71,63,72,66,61,95,87,63,29.96,29.85,5,0,0,0.02
2014-6-22,85,73,63,71,66,62,96,81,56,29.93,29.81,4,0,0,0.00
2014-6-23,83,73,62,73,67,60,95,83,68,30.00,29.87,4,0,0,0.00
2014-6-24,80,71,65,73,68,63,96,89,77,30.03,29.93,1,0,0,0.70
2014-6-25,83,73,66,72,68,64,96,84,63,30.02,29.92,4,0,0,0.02
2014-6-26,82,71,62,72,66,61,95,86,58,30.03,29.91,0,0,0,0.03
2014-6-27,83,71,67,74,69,66,96,91,69,30.07,29.95,2,0,0,0.26
2014-6-28,80,72,66,73,68,65,96,90,73,30.16,30.06,4,0,0,0.14
2014-6-29,83,71,66,75,68,65,96,91,72,30.18,30.07,1,0,0,0.45
2014-6-30,78,70,66,74,68,65,97,94,82,30.09,29.93,3,0,0,1.36
2014-7-1,88,75,66,76,71,65,97,86,67,29.98,29.84,2,0,0,0.00
2014-7-2,90,77,66,75,70,64,97,82,55,29.94,29.88,3,0,0,0.00
2014-7-3,81,72,65,71,65,57,96,79,58,30.01,29.90,7,2,0,0.00
2014-7-4,79,69,60,64,59,56,88,72,58,30.14,30.00,9,2,0,0.00
2014-7-5,83,68,54,64,59,52,93,73,50,30.21,30.12,5,0,0,0.00
2014-7-6,84,68,55,67,61,53,94,79,51,30.14,30.00,1,0,0,0.00
2014-7-7,86,72,60,72,64,58,95,80,56,30.03,29.91,2,0,0,0.00
2014-7-8,83,70,60,74,66,58,95,87,70,30.02,29.91,5,0,0,0.51
2014-7-9,80,71,66,73,68,64,97,89,72,30.00,29.92,3,0,0,0.37
2014-7-10,81,72,66,74,68,65,96,88,70,30.05,29.96,5,0,0,0.00
2014-7-11,85,73,65,73,69,64,96,87,62,30.14,30.04,4,0,0,0.00
2014-7-12,85,73,65,74,69,63,96,88,67,30.15,30.07,3,0,0,0.01
2014-7-13,88,75,67,75,69,65,96,83,57,30.12,29.97,2,0,0,0.00
2014-7-14,88,75,67,77,71,66,96,86,67,29.99,29.85,4,0,0,0.00
2014-7-15,80,71,62,71,68,60,96,89,69,29.89,29.77,6,0,0,0.03
2014-7-16,77,66,57,60,57,55,92,76,52,29.95,29.84,5,1,0,0.00
2014-7-17,82,66,51,67,59,49,94,80,56,30.03,29.94,3,0,0,0.00
2014-7-18,70,66,64,68,65,62,96,94,92,30.09,30.01,0,0,0,0.32
2014-7-19,70,66,63,67,65,62,96,94,89,30.05,29.98,3,0,0,0.45
2014-7-20,80,71,65,73,68,63,96,90,76,30.04,29.95,3,0,0,0.00
2014-7-21,78,72,69,73,69,67,96,90,78,30.05,29.95,2,0,0,0.01
2014-7-22,83,72,64,73,68,63,96,88,67,30.10,30.00,2,0,0,0.00
2014-7-23,86,72,66,74,69,65,96,89,65,30.06,29.93,4,0,0,0.01
2014-7-24,81,72,66,74,69,65,97,90,75,29.96,29.86,4,0,0,0.65
2014-7-25,85,71,62,69,65,61,96,83,56,30.02,29.92,4,0,0,0.00
2014-7-26,88,71,58,72,65,56,95,81,58,30.02,29.93,2,0,0,0.00
2014-7-27,89,75,62,78,69,61,96,85,67,30.00,29.83,4,0,0,0.00
2014-7-28,80,73,65,72,66,61,96,79,60,29.92,29.83,6,1,0,0.08
2014-7-29,75,66,56,63,58,53,94,78,58,30.02,29.90,6,1,0,0.00
2014-7-30,78,63,49,61,56,47,94,77,51,30.06,30.00,3,0,0,0.00
2014-7-31,73,64,56,67,61,54,95,89,79,30.07,30.03,1,0,0,0.00
2014-8-1,80,68,63,69,65,61,96,90,66,30.05,29.98,3,0,0,0.55
2014-8-2,76,68,61,72,66,60,96,92,80,30.06,29.99,3,0,0,0.05
2014-8-3,81,69,63,70,64,61,96,85,58,30.09,29.98,4,0,0,0.00
2014-8-4,84,69,58,69,62,56,95,80,50,30.07,29.97,3,0,0,0.00
2014-8-5,83,69,56,68,61,55,95,78,46,30.06,29.99,4,0,0,0.00
2014-8-6,85,71,57,70,64,56,95,82,58,30.04,29.93,2,0,0,0.00
2014-8-7,89,74,63,73,67,62,96,81,54,29.98,29.89,4,0,0,0.00
2014-8-8,78,71,67,72,68,65,96,91,80,30.02,29.93,3,0,0,0.28
2014-8-9,84,73,66,75,70,65,96,89,72,30.01,29.89,1,0,0,0.01
2014-8-10,83,73,68,75,70,67,96,91,72,29.99,29.90,0,0,0,0.37
2014-8-11,84,74,68,76,71,67,96,89,73,29.97,29.84,2,0,0,0.01
2014-8-12,85,73,67,72,69,65,96,88,60,29.88,29.77,4,0,0,0.06
2014-8-13,76,67,59,65,60,57,95,81,60,29.99,29.87,7,1,0,0.00
2014-8-14,83,67,55,65,60,53,95,80,51,30.04,29.94,4,0,0,0.00
2014-8-15,82,68,57,66,61,55,96,81,51,30.02,29.94,5,0,0,0.00
2014-8-16,82,68,56,68,62,54,94,83,61,30.03,29.96,2,0,0,0.00
2014-8-17,86,71,59,73,66,57,95,86,60,30.02,29.89,3,0,0,0.07
2014-8-18,78,69,66,74,68,64,96,94,83,29.94,29.82,5,0,0,1.14
2014-8-19,82,71,67,72,68,65,97,91,70,29.90,29.81,7,0,0,0.18
2014-8-20,88,72,65,77,68,64,97,89,63,30.11,29.89,5,0,0,0.33
2014-8-21,85,72,64,76,68,62,97,89,68,30.12,30.04,4,0,0,0.00
2014-8-22,87,75,67,76,70,65,96,87,65,30.08,29.95,4,0,0,0.00
2014-8-23,85,75,66,75,71,64,96,88,71,29.98,29.85,4,0,0,0.00
2014-8-24,86,74,68,75,71,67,96,90,68,29.98,29.85,3,0,0,0.21
2014-8-25,79,72,65,71,67,63,95,84,72,30.04,29.95,3,0,0,0.00
2014-8-26,81,69,57,68,63,55,94,82,64,30.12,30.00,9,0,0,0.00
2014-8-27,84,70,59,69,64,57,96,83,59,30.08,29.97,4,0,0,0.00
2014-8-28,89,71,59,71,65,57,95,82,52,30.04,29.93,2,0,0,0.00
2014-8-29,90,72,61,69,65,59,95,79,44,30.05,29.98,2,0,0,0.00
2014-8-30,84,72,63,74,68,61,95,87,71,30.10,29.99,3,0,0,0.83
2014-8-31,84,73,67,75,70,66,97,90,72,30.11,30.03,2,0,0,0.00
2014-9-1,88,75,67,76,70,66,96,86,63,30.08,29.98,2,0,0,0.00
2014-9-2,89,75,66,75,70,64,96,86,61,30.05,29.90,7,0,0,0.01
2014-9-3,83,72,67,75,69,66,96,91,72,30.04,29.94,5,0,0,2.03
2014-9-4,85,73,68,74,69,66,96,89,69,30.11,30.02,1,0,0,0.01
2014-9-5,80,72,67,73,69,66,96,92,78,30.15,30.02,3,0,0,0.07
2014-9-6,82,72,68,74,69,67,97,91,73,30.05,29.92,1,0,0,0.02
2014-9-7,83,71,65,73,68,64,96,92,71,30.00,29.92,2,0,0,0.03
2014-9-8,82,72,64,75,68,63,96,90,74,30.02,29.95,5,0,0,0.07
2014-9-9,77,70,66,73,67,64,96,91,79,30.08,29.98,1,0,0,0.02
2014-9-10,82,71,64,71,67,62,96,88,70,30.05,29.93,3,0,0,0.00
2014-9-11,84,72,66,77,70,65,97,93,75,30.00,29.92,4,0,0,1.48
2014-9-12,80,72,67,76,70,66,96,93,79,30.02,29.93,2,0,0,0.17
2014-9-13,73,69,63,69,66,60,96,91,81,30.11,29.97,6,1,0,0.00
2014-9-14,78,67,61,71,64,59,95,91,78,30.16,30.08,2,0,0,0.00
2014-9-15,79,69,64,72,67,63,96,92,77,30.16,30.04,1,0,0,0.09
2014-9-16,78,70,66,70,67,65,96,89,72,30.08,29.92,3,0,0,0.00
2014-9-17,77,66,57,65,61,55,94,85,66,29.96,29.85,3,0,0,0.00
2014-9-18,78,64,54,63,58,52,96,83,49,29.99,29.91,3,0,0,0.00
2014-9-19,80,65,56,69,61,54,96,86,64,30.12,29.98,2,0,0,0.00
2014-9-20,81,66,57,66,61,55,95,84,57,30.14,29.98,0,0,0,0.00
2014-9-21,81,67,56,69,63,55,95,86,66,30.02,29.86,4,0,0,0.04
2014-9-22,69,61,54,65,54,51,95,79,55,30.12,29.93,9,1,0,0.00
2014-9-23,75,58,46,61,53,44,95,84,58,30.23,30.12,2,0,0,0.00
2014-9-24,76,60,48,63,55,46,95,84,60,30.29,30.18,1,0,0,0.00
2014-9-25,76,63,53,64,58,51,95,85,66,30.23,30.09,3,0,0,0.00
2014-9-26,78,64,55,66,60,53,96,87,65,30.16,30.07,3,0,0,0.00
2014-9-27,74,64,57,64,60,55,95,86,67,30.16,30.07,4,0,0,0.00
2014-9-28,70,62,54,65,60,53,95,90,80,30.14,30.04,0,0,0,0.00
2014-9-29,70,65,61,67,63,60,96,94,86,30.04,29.90,2,0,0,0.31
2014-9-30,78,65,58,67,61,56,96,89,62,29.94,29.85,4,0,0,0.00
2014-10-1,79,63,54,65,58,53,96,87,60,30.01,29.91,2,0,0,0.00
2014-10-2,83,65,53,68,60,51,95,85,58,30.10,29.95,2,0,0,0.00
2014-10-3,69,65,60,66,63,56,96,92,84,29.97,29.80,3,0,0,0.44
2014-10-4,59,50,39,55,41,33,90,73,48,29.96,29.83,9,2,0,0.00
2014-10-5,67,47,32,48,39,30,95,77,43,30.06,29.94,4,0,0,0.00
2014-10-6,69,55,44,61,51,41,95,87,71,30.05,29.93,3,0,0,0.15
2014-10-7,68,61,55,66,59,53,96,93,86,30.05,29.93,5,0,0,0.71
2014-10-8,78,66,60,68,62,58,96,87,65,30.09,29.99,7,0,0,0.27
2014-10-9,76,64,55,69,61,54,96,92,76,30.13,30.03,2,0,0,0.01
2014-10-10,80,67,58,69,64,56,97,89,69,30.06,29.94,3,0,0,0.06
2014-10-11,76,67,62,68,64,61,97,91,71,30.02,29.92,0,0,0,0.05
2014-10-12,71,65,59,69,63,57,97,93,86,30.07,29.97,6,0,0,0.82
2014-10-13,71,66,62,65,63,60,94,88,80,30.08,29.88,6,2,0,0.00
2014-10-14,70,63,53,65,61,52,95,92,83,29.89,29.65,8,1,0,2.06
2014-10-15,58,55,52,53,52,50,95,90,79,29.86,29.81,4,0,0,0.02
2014-10-16,57,52,46,52,50,44,95,91,82,29.95,29.79,3,0,0,0.07
2014-10-17,76,55,44,61,51,42,96,86,58,29.99,29.86,5,0,0,0.00
2014-10-18,65,57,50,57,50,44,94,78,57,30.03,29.83,11,2,0,0.00
2014-10-19,67,52,42,51,45,40,93,77,51,30.16,30.02,6,0,0,0.00
2014-10-20,69,53,43,54,48,42,95,85,58,30.12,29.97,5,0,0,0.00
2014-10-21,65,53,43,54,47,42,95,82,57,30.03,29.95,7,1,0,0.01
2014-10-22,58,49,41,44,41,38,90,74,56,30.16,30.02,7,2,0,0.00
2014-10-23,63,46,33,47,40,31,94,81,55,30.17,30.05,4,0,0,0.00
2014-10-24,68,51,41,49,43,39,95,77,40,30.10,30.00,5,0,0,0.00
2014-10-25,70,51,35,54,44,33,94,80,48,30.10,30.00,4,0,0,0.00
2014-10-26,76,57,44,59,50,42,95,80,46,30.04,29.95,5,0,0,0.00
2014-10-27,83,59,44,63,52,42,95,80,35,30.11,30.00,2,0,0,0.00
2014-10-28,72,60,51,62,55,49,95,84,60,30.11,30.03,6,0,0,0.00
2014-10-29,60,53,41,58,51,39,95,90,69,30.06,30.00,5,0,0,0.15
2014-10-30,62,46,36,45,38,34,95,77,40,30.11,29.98,4,0,0,0.00
2014-10-31,54,41,33,44,37,31,94,85,59,29.99,29.88,11,1,0,0.02
2014-11-1,35,34,32,32,31,30,91,87,83,30.29,29.91,11,5,0,0.03
2014-11-2,48,37,28,31,26,24,85,68,43,30.43,30.27,12,2,0,0.00
2014-11-3,68,42,26,35,30,23,92,67,25,30.50,30.37,2,0,0,0.00
2014-11-4,69,48,35,42,34,28,91,63,26,30.40,30.22,4,0,0,0.00
2014-11-5,62,53,42,53,47,36,88,80,73,30.27,30.12,4,0,0,0.00
2014-11-6,66,56,45,56,47,33,95,75,47,30.11,29.89,13,2,0,0.20
2014-11-7,51,42,33,37,34,30,88,73,57,30.10,30.01,13,3,0,0.00
2014-11-8,63,43,30,41,34,28,94,74,40,30.06,29.95,3,0,0,0.01
2014-11-9,63,45,32,43,37,29,93,76,48,30.04,29.93,5,0,0,0.00
2014-11-10,69,46,30,46,37,28,94,75,42,30.10,29.99,2,0,0,0.00
2014-11-11,70,49,33,48,40,31,94,76,40,30.08,29.95,4,0,0,0.00
2014-11-12,56,48,38,51,44,36,91,86,75,30.11,29.98,6,2,0,0.00
2014-11-13,38,34,28,36,30,21,92,86,74,30.20,30.08,11,4,0,0.00
2014-11-14,34,27,22,20,16,15,76,64,48,30.34,30.19,12,4,0,0.00
2014-11-15,48,32,18,27,20,14,87,64,42,30.44,30.29,4,0,0,0.00
2014-11-16,50,43,37,48,32,22,95,69,51,30.31,29.94,2,0,0,0.53
2014-11-17,52,40,23,51,36,13,95,87,66,30.12,29.69,13,3,0,1.80
2014-11-18,29,23,15,17,12,9,84,65,47,30.40,30.11,11,2,0,0.00
2014-11-19,45,28,11,24,17,8,89,68,43,30.46,30.27,7,0,0,0.00
2014-11-20,53,42,30,32,27,22,80,57,44,30.30,30.16,7,1,0,0.00
2014-11-21,55,38,26,32,26,21,90,67,36,30.46,30.28,6,0,0,0.00
2014-11-22,62,44,27,40,30,24,90,64,37,30.49,30.21,9,2,0,0.00
2014-11-23,58,52,46,55,49,34,95,89,52,30.21,29.58,13,2,0,1.11
2014-11-24,69,59,43,57,51,35,92,76,56,29.96,29.65,11,1,0,0.00
2014-11-25,56,46,37,37,33,28,87,61,35,30.11,29.95,6,1,0,0.00
2014-11-26,50,43,36,35,29,23,81,59,35,30.07,29.95,7,1,0,0.00
2014-11-27,42,36,30,34,28,22,79,73,67,30.40,30.00,11,3,0,0.00
2014-11-28,46,33,23,23,19,12,83,61,27,30.44,30.28,4,1,0,0.00
2014-11-29,50,38,24,34,28,21,88,68,43,30.33,30.21,6,0,0,0.00
2014-11-30,63,52,38,52,45,32,91,79,67,30.31,30.21,5,1,0,0.00
2014-12-1,64,53,45,58,50,42,94,89,79,30.38,30.28,4,0,0,0.00
2014-12-2,66,55,44,55,50,43,96,84,65,30.30,30.20,6,0,0,0.00
2014-12-3,65,56,47,54,50,45,91,80,59,30.26,30.18,4,1,0,0.00
2014-12-4,65,52,42,55,48,40,94,87,69,30.32,30.21,3,0,0,0.00
2014-12-5,59,53,50,55,51,48,95,92,83,30.35,30.23,3,0,0,0.26
2014-12-6,56,51,42,55,49,39,95,93,86,30.26,30.06,13,3,0,0.50
2014-12-7,51,42,36,39,36,34,91,82,63,30.38,30.26,15,3,0,0.00
2014-12-8,47,39,34,39,33,25,92,79,62,30.36,30.19,3,0,0,0.00
2014-12-9,44,37,32,37,33,30,94,86,69,30.19,30.06,11,3,0,0.01
2014-12-10,39,35,30,32,30,24,87,79,70,30.20,30.12,12,5,0,0.00
2014-12-11,42,33,28,27,25,23,84,73,55,30.28,30.12,9,2,0,0.00
2014-12-12,54,36,21,28,20,13,89,57,21,30.40,30.27,6,0,0,0.00
2014-12-13,56,36,22,33,26,15,88,69,41,30.31,30.17,7,1,0,0.00
2014-12-14,41,30,23,33,26,21,93,87,72,30.20,30.12,6,1,0,0.00
2014-12-15,64,39,21,44,31,19,94,76,32,30.14,30.01,2,0,0,0.12
2014-12-16,52,48,40,50,43,37,95,85,69,30.14,29.90,6,1,0,0.26
2014-12-17,43,39,34,37,35,31,88,85,78,30.23,30.13,5,2,0,0.00
2014-12-18,48,39,31,39,32,28,91,77,59,30.22,30.12,4,0,0,0.00
2014-12-19,49,38,29,36,30,26,89,75,62,30.21,30.11,5,0,0,0.00
2014-12-20,45,40,36,42,38,31,93,90,77,30.22,30.13,1,0,0,0.02
2014-12-21,51,45,40,44,41,38,94,86,76,30.23,30.07,4,0,0,0.00
2014-12-22,54,47,45,46,43,41,93,86,75,30.08,29.84,9,2,0,0.30
2014-12-23,56,50,46,54,49,45,95,93,84,29.91,29.72,6,1,0,1.54
2014-12-24,59,51,42,58,49,39,96,93,86,29.85,29.56,5,0,0,0.44
2014-12-25,48,40,30,39,33,27,92,78,60,30.27,29.84,5,1,0,0.00
2014-12-26,59,39,25,39,30,23,93,75,28,30.39,30.26,4,0,0,0.00
2014-12-27,58,46,34,46,36,30,91,70,42,30.35,30.15,3,0,0,0.00
2014-12-28,56,53,49,55,51,46,95,94,86,30.15,29.99,5,0,0,0.20
2014-12-29,56,51,45,52,48,43,96,92,83,30.10,29.99,3,0,0,0.35
2014-12-30,44,39,33,43,36,30,94,89,81,30.44,30.10,8,2,0,0.00
2014-12-31,43,33,28,34,28,24,92,81,57,30.50,30.39,5,0,0,0.00
2015-1-1,45,34,23,36,27,20,91,76,51,30.41,30.30,2,0,0,0.01
2015-1-2,45,41,38,44,39,35,95,92,81,30.37,30.26,3,0,0,0.49